createdAt,value
2023-05-06T00:01:57.086Z,18.61
2023-05-06T00:04:23.823Z,18.60
2023-05-06T00:06:50.290Z,18.57
2023-05-06T00:09:16.859Z,18.58
2023-05-06T00:11:43.228Z,18.58
2023-05-06T00:14:09.651Z,18.59
2023-05-06T00:16:37.201Z,18.59
2023-05-06T00:19:04.216Z,18.60
2023-05-06T00:21:32.257Z,18.59
2023-05-06T00:23:58.622Z,18.59
2023-05-06T00:26:26.533Z,18.58
2023-05-06T00:28:52.908Z,18.58
2023-05-06T00:31:20.044Z,18.56
2023-05-06T00:33:47.218Z,18.57
2023-05-06T00:36:13.711Z,18.57
2023-05-06T00:38:40.626Z,18.56
2023-05-06T00:41:08.277Z,18.57
2023-05-06T00:43:34.746Z,18.57
2023-05-06T00:46:01.613Z,18.56
2023-05-06T00:48:28.750Z,18.55
2023-05-06T00:50:56.757Z,18.55
2023-05-06T00:53:23.993Z,18.54
2023-05-06T00:55:51.443Z,18.54
2023-05-06T00:58:20.310Z,18.53
2023-05-06T01:00:47.074Z,18.54
2023-05-06T01:03:13.542Z,18.53
2023-05-06T01:06:00.034Z,18.49
2023-05-06T01:08:35.102Z,18.48
2023-05-06T01:11:15.097Z,18.48
2023-05-06T01:13:45.221Z,18.48
2023-05-06T01:16:13.587Z,18.46
2023-05-06T01:18:42.607Z,18.44
2023-05-06T01:21:09.884Z,18.44
2023-05-06T01:23:57.938Z,18.39
2023-05-06T01:26:25.543Z,18.43
2023-05-06T01:28:52.055Z,18.44
2023-05-06T01:31:26.771Z,18.37
2023-05-06T01:34:09.711Z,18.33
2023-05-06T01:36:45.584Z,18.31
2023-05-06T01:39:24.110Z,18.29
2023-05-06T01:41:51.894Z,18.30
2023-05-06T01:44:28.330Z,18.29
2023-05-06T01:46:56.115Z,18.28
2023-05-06T01:49:26.393Z,18.24
2023-05-06T01:51:53.730Z,18.22
2023-05-06T01:54:20.440Z,18.19
2023-05-06T01:56:47.230Z,18.18
2023-05-06T01:59:14.672Z,18.14
2023-05-06T02:01:41.286Z,18.12
2023-05-06T02:04:07.778Z,18.09
2023-05-06T02:06:34.745Z,18.07
2023-05-06T02:09:01.456Z,18.06
2023-05-06T02:11:28.670Z,18.06
2023-05-06T02:13:55.267Z,18.04
2023-05-06T02:16:22.197Z,18.02
2023-05-06T02:18:48.666Z,18.00
2023-05-06T02:21:15.226Z,17.98
2023-05-06T02:23:41.576Z,17.97
2023-05-06T02:26:08.321Z,17.94
2023-05-06T02:28:34.659Z,17.93
2023-05-06T02:31:01.070Z,17.91
2023-05-06T02:33:27.565Z,17.92
2023-05-06T02:35:53.932Z,17.90
2023-05-06T02:38:21.390Z,17.91
2023-05-06T02:40:47.816Z,17.89
2023-05-06T02:43:14.793Z,17.88
2023-05-06T02:45:41.157Z,17.86
2023-05-06T02:48:07.638Z,17.84
2023-05-06T02:50:36.748Z,17.82
2023-05-06T02:53:03.355Z,17.81
2023-05-06T02:55:30.926Z,17.77
2023-05-06T02:57:57.407Z,17.75
2023-05-06T03:00:23.845Z,17.72
2023-05-06T03:02:50.353Z,17.68
2023-05-06T03:05:17.142Z,17.64
2023-05-06T03:07:43.495Z,17.61
2023-05-06T03:10:11.440Z,17.58
2023-05-06T03:12:38.022Z,17.55
2023-05-06T03:15:05.029Z,17.51
2023-05-06T03:17:33.708Z,17.46
2023-05-06T03:20:00.377Z,17.43
2023-05-06T03:22:26.969Z,17.41
2023-05-06T03:24:54.618Z,17.36
2023-05-06T03:27:21.277Z,17.34
2023-05-06T03:29:47.713Z,17.32
2023-05-06T03:32:14.036Z,17.30
2023-05-06T03:34:41.581Z,17.27
2023-05-06T03:37:08.867Z,17.26
2023-05-06T03:39:35.494Z,17.23
2023-05-06T03:42:02.256Z,17.20
2023-05-06T03:44:28.637Z,17.18
2023-05-06T03:46:55.023Z,17.15
2023-05-06T03:49:21.447Z,17.14
2023-05-06T03:51:48.984Z,17.12
2023-05-06T03:54:15.748Z,17.09
2023-05-06T03:56:42.128Z,17.08
2023-05-06T03:59:09.107Z,17.06
2023-05-06T04:01:35.557Z,17.04
2023-05-06T04:06:28.678Z,16.97
2023-05-06T04:08:55.113Z,16.95
2023-05-06T04:11:21.480Z,16.95
2023-05-06T04:13:48.669Z,16.92
2023-05-06T04:16:15.372Z,16.91
2023-05-06T04:18:43.805Z,16.90
2023-05-06T04:21:12.034Z,16.89
2023-05-06T04:23:39.862Z,16.87
2023-05-06T04:26:06.285Z,16.87
2023-05-06T04:28:32.842Z,16.84
2023-05-06T04:31:02.419Z,16.83
2023-05-06T04:33:29.710Z,16.80
2023-05-06T04:36:00.215Z,16.78
2023-05-06T04:38:30.445Z,16.76
2023-05-06T04:40:56.809Z,16.73
2023-05-06T04:43:23.525Z,16.70
2023-05-06T04:45:50.040Z,16.66
2023-05-06T04:48:22.268Z,16.63
2023-05-06T04:50:49.606Z,16.63
2023-05-06T04:53:16.747Z,16.63
2023-05-06T04:55:43.497Z,16.62
2023-05-06T04:58:12.562Z,16.64
2023-05-06T05:00:39.319Z,16.65
2023-05-06T05:03:05.795Z,16.65
2023-05-06T05:05:34.890Z,16.67
2023-05-06T05:08:03.762Z,16.69
2023-05-06T05:10:30.478Z,16.69
2023-05-06T05:12:57.377Z,16.70
2023-05-06T05:15:23.868Z,16.72
2023-05-06T05:17:51.994Z,16.74
2023-05-06T05:20:18.791Z,16.76
2023-05-06T05:22:47.891Z,16.79
2023-05-06T05:25:14.607Z,16.83
2023-05-06T05:27:42.228Z,16.85
2023-05-06T05:30:09.250Z,16.88
2023-05-06T05:32:35.685Z,16.90
2023-05-06T05:35:02.110Z,16.93
2023-05-06T05:37:28.443Z,16.97
2023-05-06T05:39:54.791Z,17.00
2023-05-06T05:42:21.473Z,17.01
2023-05-06T05:44:50.761Z,17.03
2023-05-06T05:47:17.172Z,17.05
2023-05-06T05:49:43.632Z,17.07
2023-05-06T05:52:10.198Z,17.10
2023-05-06T05:54:36.992Z,17.12
2023-05-06T05:57:03.624Z,17.14
2023-05-06T05:59:30.026Z,17.16
2023-05-06T06:01:56.638Z,17.22
2023-05-06T06:04:23.055Z,17.25
2023-05-06T06:06:49.812Z,17.29
2023-05-06T06:09:22.852Z,17.34
2023-05-06T06:11:49.536Z,17.40
2023-05-06T06:14:16.098Z,17.45
2023-05-06T06:16:42.754Z,17.50
2023-05-06T06:19:09.324Z,17.55
2023-05-06T06:21:35.968Z,17.59
2023-05-06T06:24:02.382Z,17.64
2023-05-06T06:26:28.705Z,17.71
2023-05-06T06:28:55.072Z,17.76
2023-05-06T06:31:21.490Z,17.81
2023-05-06T06:33:47.867Z,17.87
2023-05-06T06:36:14.289Z,17.94
2023-05-06T06:38:41.540Z,18.01
2023-05-06T06:41:08.164Z,18.08
2023-05-06T06:43:34.506Z,18.14
2023-05-06T06:46:01.359Z,18.20
2023-05-06T06:48:27.978Z,18.26
2023-05-06T06:50:54.561Z,18.32
2023-05-06T06:53:20.979Z,18.39
2023-05-06T06:55:47.648Z,18.46
2023-05-06T06:58:14.169Z,18.52
2023-05-06T07:00:40.601Z,18.60
2023-05-06T07:03:07.259Z,18.67
2023-05-06T07:05:33.943Z,18.76
2023-05-06T07:08:00.503Z,18.86
2023-05-06T07:10:27.470Z,18.94
2023-05-06T07:12:54.234Z,19.06
2023-05-06T07:15:20.796Z,19.16
2023-05-06T07:17:47.163Z,19.27
2023-05-06T07:20:13.811Z,19.40
2023-05-06T07:22:41.592Z,19.53
2023-05-06T07:25:08.962Z,19.66
2023-05-06T07:27:35.420Z,19.83
2023-05-06T07:30:02.035Z,20.02
2023-05-06T07:32:28.600Z,20.29
2023-05-06T07:34:55.044Z,20.66
2023-05-06T07:37:21.633Z,21.08
2023-05-06T07:39:47.992Z,21.56
2023-05-06T07:42:14.416Z,22.07
2023-05-06T07:44:40.795Z,22.58
2023-05-06T07:47:08.009Z,23.11
2023-05-06T07:49:35.238Z,23.63
2023-05-06T07:52:01.728Z,24.11
2023-05-06T07:54:28.967Z,24.60
2023-05-06T07:56:55.868Z,25.07
2023-05-06T07:59:22.605Z,25.52
2023-05-06T08:01:49.004Z,25.95
2023-05-06T08:04:15.544Z,26.34
2023-05-06T08:06:42.004Z,26.68
2023-05-06T08:09:09.307Z,27.01
2023-05-06T08:11:35.763Z,27.32
2023-05-06T08:14:02.073Z,27.61
2023-05-06T08:16:28.722Z,27.90
2023-05-06T08:18:55.155Z,28.13
2023-05-06T08:21:22.001Z,28.32
2023-05-06T08:23:48.368Z,28.46
2023-05-06T08:26:14.734Z,28.61
2023-05-06T08:28:41.134Z,28.72
2023-05-06T08:31:07.754Z,28.86
2023-05-06T08:33:34.090Z,28.94
2023-05-06T08:36:00.599Z,29.01
2023-05-06T08:38:27.093Z,29.07
2023-05-06T08:40:54.959Z,29.10
2023-05-06T08:43:21.854Z,29.11
2023-05-06T08:45:49.233Z,29.04
2023-05-06T08:48:16.610Z,28.96
2023-05-06T08:50:43.555Z,28.80
2023-05-06T08:53:13.594Z,28.59
2023-05-06T08:55:44.113Z,28.39
2023-05-06T08:58:13.589Z,28.18
2023-05-06T09:00:40.298Z,27.97
2023-05-06T09:03:06.786Z,27.77
2023-05-06T09:05:33.461Z,27.61
2023-05-06T09:07:59.988Z,27.47
2023-05-06T09:10:31.767Z,27.32
2023-05-06T09:12:58.294Z,27.24
2023-05-06T09:15:26.511Z,27.14
2023-05-06T09:17:55.984Z,27.05
2023-05-06T09:20:22.642Z,27.00
2023-05-06T09:22:49.399Z,26.94
2023-05-06T09:25:16.202Z,26.88
2023-05-06T09:27:42.792Z,26.82
2023-05-06T09:30:12.448Z,26.77
2023-05-06T09:32:40.532Z,26.77
2023-05-06T09:35:08.586Z,26.75
2023-05-06T09:37:35.450Z,26.75
2023-05-06T09:40:01.888Z,26.72
2023-05-06T09:42:30.644Z,26.70
2023-05-06T09:45:01.267Z,26.67
2023-05-06T09:47:33.621Z,26.58
2023-05-06T09:50:01.628Z,26.53
2023-05-06T09:52:28.761Z,26.47
2023-05-06T09:54:55.565Z,26.41
2023-05-06T09:57:23.858Z,26.34
2023-05-06T09:59:54.380Z,26.28
2023-05-06T10:02:23.672Z,26.25
2023-05-06T10:04:51.511Z,26.25
2023-05-06T10:07:25.583Z,26.26
2023-05-06T10:09:54.094Z,26.30
2023-05-06T10:12:20.487Z,26.36
2023-05-06T10:14:47.272Z,26.42
2023-05-06T10:17:14.517Z,26.40
2023-05-06T10:19:45.293Z,26.37
2023-05-06T10:22:51.862Z,26.36
2023-05-06T10:25:31.261Z,26.41
2023-05-06T10:27:58.153Z,26.42
2023-05-06T10:30:26.736Z,26.42
2023-05-06T10:32:56.611Z,26.42
2023-05-06T10:35:42.688Z,26.43
2023-05-06T10:38:54.912Z,26.45
2023-05-06T10:41:22.756Z,26.50
2023-05-06T10:43:56.807Z,26.51
2023-05-06T10:46:26.437Z,26.49
2023-05-06T10:49:12.441Z,26.44
2023-05-06T10:51:40.455Z,26.47
2023-05-06T10:54:08.091Z,26.47
2023-05-06T10:56:35.862Z,26.50
2023-05-06T10:59:09.493Z,26.49
2023-05-06T11:01:37.816Z,26.52
2023-05-06T11:04:16.133Z,26.51
2023-05-06T11:06:46.766Z,26.54
2023-05-06T11:09:21.396Z,26.55
2023-05-06T11:11:52.260Z,26.58
2023-05-06T11:14:35.796Z,26.56
2023-05-06T11:17:13.989Z,26.57
2023-05-06T11:19:40.695Z,26.59
2023-05-06T11:22:07.212Z,26.57
2023-05-06T11:24:41.227Z,26.53
2023-05-06T11:27:09.210Z,26.53
2023-05-06T11:29:36.194Z,26.50
2023-05-06T11:32:03.839Z,26.50
2023-05-06T11:34:32.328Z,26.48
2023-05-06T11:36:58.867Z,26.49
2023-05-06T11:39:30.401Z,26.51
2023-05-06T11:41:59.084Z,26.51
2023-05-06T11:44:29.827Z,26.54
2023-05-06T11:47:00.852Z,26.62
2023-05-06T11:49:27.730Z,26.63
2023-05-06T11:51:57.088Z,26.64
2023-05-06T11:54:26.091Z,26.65
2023-05-06T11:56:55.124Z,26.67
2023-05-06T11:59:32.377Z,26.70
2023-05-06T12:02:02.111Z,26.75
2023-05-06T12:04:41.536Z,26.75
2023-05-06T12:07:09.298Z,26.79
2023-05-06T12:09:37.801Z,26.80
2023-05-06T12:12:05.551Z,26.85
2023-05-06T12:14:32.592Z,26.91
2023-05-06T12:16:59.503Z,26.98
2023-05-06T12:19:26.790Z,27.02
2023-05-06T12:21:53.306Z,27.08
2023-05-06T12:24:29.930Z,27.07
2023-05-06T12:26:56.609Z,27.12
2023-05-06T12:29:23.208Z,27.10
2023-05-06T12:31:49.969Z,27.11
2023-05-06T12:34:18.644Z,27.10
2023-05-06T12:36:47.009Z,27.10
2023-05-06T12:39:14.354Z,27.11
2023-05-06T12:41:43.794Z,27.11
2023-05-06T12:44:37.478Z,27.06
2023-05-06T12:47:07.663Z,27.07
2023-05-06T12:49:49.836Z,26.96
2023-05-06T12:52:17.717Z,26.94
2023-05-06T12:54:44.471Z,26.88
2023-05-06T12:57:12.442Z,26.84
2023-05-06T12:59:39.533Z,26.82
2023-05-06T13:02:06.682Z,26.84
2023-05-06T13:04:33.199Z,26.86
2023-05-06T13:06:59.957Z,26.88
2023-05-06T13:09:26.865Z,26.89
2023-05-06T13:11:53.603Z,26.88
2023-05-06T13:14:19.994Z,26.89
2023-05-06T13:16:47.967Z,26.89
2023-05-06T13:19:30.835Z,26.89
2023-05-06T13:22:02.135Z,26.89
2023-05-06T13:24:29.228Z,26.90
2023-05-06T13:26:57.947Z,26.92
2023-05-06T13:29:24.932Z,26.96
2023-05-06T13:31:51.799Z,26.99
2023-05-06T13:34:18.697Z,27.00
2023-05-06T13:36:46.596Z,27.03
2023-05-06T13:39:13.369Z,27.06
2023-05-06T13:41:40.255Z,27.09
2023-05-06T13:44:06.687Z,27.11
2023-05-06T13:46:33.204Z,27.14
2023-05-06T13:48:59.601Z,27.17
2023-05-06T13:51:30.701Z,27.19
2023-05-06T13:53:57.095Z,27.23
2023-05-06T13:56:23.599Z,27.26
2023-05-06T13:58:53.322Z,27.30
2023-05-06T14:01:20.863Z,27.34
2023-05-06T14:03:50.312Z,27.39
2023-05-06T14:06:18.228Z,27.44
2023-05-06T14:08:45.300Z,27.48
2023-05-06T14:11:11.707Z,27.52
2023-05-06T14:13:40.012Z,27.52
2023-05-06T14:16:06.898Z,27.54
2023-05-06T14:18:35.189Z,27.54
2023-05-06T14:21:01.642Z,27.55
2023-05-06T14:23:28.291Z,27.57
2023-05-06T14:25:54.684Z,27.58
2023-05-06T14:28:21.124Z,27.59
2023-05-06T14:30:47.712Z,27.58
2023-05-06T14:33:14.150Z,27.59
2023-05-06T14:35:42.454Z,27.58
2023-05-06T14:38:10.567Z,27.57
2023-05-06T14:40:38.956Z,27.56
2023-05-06T14:43:07.523Z,27.57
2023-05-06T14:45:34.085Z,27.57
2023-05-06T14:48:00.747Z,27.50
2023-05-06T14:50:28.461Z,27.45
2023-05-06T14:52:54.821Z,27.41
2023-05-06T14:55:21.563Z,27.39
2023-05-06T14:57:48.346Z,27.36
2023-05-06T15:00:15.956Z,27.37
2023-05-06T15:02:42.376Z,27.36
2023-05-06T15:05:15.022Z,27.36
2023-05-06T15:07:41.997Z,27.35
2023-05-06T15:10:08.783Z,27.34
2023-05-06T15:12:36.517Z,27.32
2023-05-06T15:15:04.831Z,27.30
2023-05-06T15:17:37.360Z,27.28
2023-05-06T15:20:04.471Z,27.25
2023-05-06T15:22:30.889Z,27.23
2023-05-06T15:24:57.570Z,27.21
2023-05-06T15:27:24.073Z,27.20
2023-05-06T15:29:50.903Z,27.19
2023-05-06T15:32:17.346Z,27.18
2023-05-06T15:34:43.727Z,27.16
2023-05-06T15:37:10.551Z,27.14
2023-05-06T15:39:39.736Z,27.12
2023-05-06T15:42:06.320Z,27.11
2023-05-06T15:44:34.590Z,27.09
2023-05-06T15:47:01.085Z,27.09
2023-05-06T15:51:59.884Z,27.09
2023-05-06T15:54:27.389Z,27.08
2023-05-06T15:56:53.795Z,27.07
2023-05-06T15:59:20.192Z,27.05
2023-05-06T16:04:16.306Z,27.01
2023-05-06T16:06:48.736Z,26.98
2023-05-06T16:09:15.616Z,26.94
2023-05-06T16:11:42.304Z,26.89
2023-05-06T16:14:08.678Z,26.88
2023-05-06T16:16:36.988Z,26.85
2023-05-06T16:19:04.382Z,26.82
2023-05-06T16:21:30.804Z,26.81
2023-05-06T16:24:00.880Z,26.78
2023-05-06T16:26:27.230Z,26.79
2023-05-06T16:28:53.965Z,26.77
2023-05-06T16:31:20.697Z,26.75
2023-05-06T16:33:47.447Z,26.72
2023-05-06T16:36:13.919Z,26.70
2023-05-06T16:38:40.350Z,26.68
2023-05-06T16:41:09.448Z,26.63
2023-05-06T16:43:36.123Z,26.60
2023-05-06T16:46:02.830Z,26.54
2023-05-06T16:48:29.583Z,26.50
2023-05-06T16:50:58.462Z,26.47
2023-05-06T16:53:27.638Z,26.43
2023-05-06T16:55:54.112Z,26.37
2023-05-06T16:58:20.498Z,26.33
2023-05-06T17:00:47.227Z,26.21
2023-05-06T17:03:13.820Z,26.04
2023-05-06T17:05:40.284Z,25.80
2023-05-06T17:08:07.245Z,25.53
2023-05-06T17:10:33.749Z,25.22
2023-05-06T17:13:00.497Z,24.90
2023-05-06T17:15:27.198Z,24.57
2023-05-06T17:17:53.959Z,24.27
2023-05-06T17:20:20.852Z,23.98
2023-05-06T17:22:47.579Z,23.73
2023-05-06T17:25:14.375Z,23.51
2023-05-06T17:27:43.509Z,23.32
2023-05-06T17:30:10.484Z,23.14
2023-05-06T17:32:41.500Z,22.98
2023-05-06T17:35:08.407Z,22.83
2023-05-06T17:37:34.951Z,22.71
2023-05-06T17:40:02.052Z,22.59
2023-05-06T17:42:29.523Z,22.50
2023-05-06T17:44:55.958Z,22.42
2023-05-06T17:47:30.573Z,22.33
2023-05-06T17:49:57.340Z,22.25
2023-05-06T17:52:25.312Z,22.18
2023-05-06T17:54:57.572Z,22.15
2023-05-06T17:57:34.822Z,22.12
2023-05-06T18:00:01.624Z,22.09
2023-05-06T18:02:28.100Z,22.05
2023-05-06T18:04:54.628Z,22.02
2023-05-06T18:07:21.336Z,22.00
2023-05-06T18:09:52.209Z,21.99
2023-05-06T18:12:19.566Z,21.98
2023-05-06T18:14:46.418Z,21.96
2023-05-06T18:17:12.828Z,21.95
2023-05-06T18:19:39.498Z,21.95
2023-05-06T18:22:06.098Z,21.95
2023-05-06T18:24:32.714Z,21.94
2023-05-06T18:26:59.393Z,21.93
2023-05-06T18:29:27.808Z,21.94
2023-05-06T18:31:54.226Z,21.96
2023-05-06T18:34:20.674Z,21.95
2023-05-06T18:36:47.350Z,21.96
2023-05-06T18:39:14.333Z,21.97
2023-05-06T18:41:41.266Z,21.97
2023-05-06T18:44:08.251Z,21.99
2023-05-06T18:46:34.682Z,21.99
2023-05-06T18:49:01.299Z,21.98
2023-05-06T18:51:27.766Z,21.98
2023-05-06T18:53:54.202Z,21.97
2023-05-06T18:56:21.526Z,21.97
2023-05-06T18:58:49.079Z,21.98
2023-05-06T19:01:16.149Z,21.99
2023-05-06T19:03:43.188Z,21.99
2023-05-06T19:06:10.479Z,21.97
2023-05-06T19:08:37.248Z,21.97
2023-05-06T19:11:03.878Z,21.95
2023-05-06T19:13:31.159Z,21.94
2023-05-06T19:15:57.581Z,21.92
2023-05-06T19:18:23.973Z,21.91
2023-05-06T19:20:52.425Z,21.89
2023-05-06T19:23:20.100Z,21.86
2023-05-06T19:25:46.601Z,21.85
2023-05-06T19:28:13.202Z,21.84
2023-05-06T19:30:39.731Z,21.84
2023-05-06T19:33:06.638Z,21.83
2023-05-06T19:35:33.293Z,21.81
2023-05-06T19:37:59.775Z,21.80
2023-05-06T19:40:26.191Z,21.80
2023-05-06T19:42:53.674Z,21.80
2023-05-06T19:45:20.219Z,21.80
2023-05-06T19:47:47.185Z,21.79
2023-05-06T19:50:13.655Z,21.80
2023-05-06T19:52:40.670Z,21.80
2023-05-06T19:55:09.218Z,21.79
2023-05-06T19:57:38.380Z,21.80
2023-05-06T20:00:09.786Z,21.80
2023-05-06T20:02:37.924Z,21.79
2023-05-06T20:05:06.244Z,21.79
2023-05-06T20:07:33.647Z,21.76
2023-05-06T20:10:00.415Z,21.76
2023-05-06T20:12:27.269Z,21.74
2023-05-06T20:14:56.819Z,21.69
2023-05-06T20:17:23.699Z,21.69
2023-05-06T20:19:50.534Z,21.68
2023-05-06T20:22:16.918Z,21.66
2023-05-06T20:24:44.762Z,21.63
2023-05-06T20:27:11.193Z,21.62
2023-05-06T20:29:37.798Z,21.61
2023-05-06T20:32:04.663Z,21.58
2023-05-06T20:34:31.368Z,21.57
2023-05-06T20:36:58.122Z,21.53
2023-05-06T20:39:24.611Z,21.52
2023-05-06T20:41:51.105Z,21.49
2023-05-06T20:44:17.721Z,21.47
2023-05-06T20:46:44.186Z,21.45
2023-05-06T20:49:11.995Z,21.42
2023-05-06T20:51:38.622Z,21.42
2023-05-06T20:54:05.617Z,21.42
2023-05-06T20:56:32.321Z,21.42
2023-05-06T20:58:58.901Z,21.41
2023-05-06T21:01:26.792Z,21.42
2023-05-06T21:03:53.512Z,21.42
2023-05-06T21:06:20.170Z,21.43
2023-05-06T21:08:46.923Z,21.44
2023-05-06T21:11:14.365Z,21.43
2023-05-06T21:13:41.704Z,21.42
2023-05-06T21:16:08.693Z,21.41
2023-05-06T21:18:35.186Z,21.40
2023-05-06T21:21:01.587Z,21.41
2023-05-06T21:23:27.968Z,21.40
2023-05-06T21:25:55.505Z,21.41
2023-05-06T21:28:22.091Z,21.41
2023-05-06T21:30:48.484Z,21.39
2023-05-06T21:33:16.690Z,21.38
2023-05-06T21:35:43.050Z,21.39
2023-05-06T21:38:09.991Z,21.39
2023-05-06T21:40:36.547Z,21.37
2023-05-06T21:43:03.319Z,21.37
2023-05-06T21:45:29.892Z,21.36
2023-05-06T21:47:57.060Z,21.35
2023-05-06T21:50:23.574Z,21.33
2023-05-06T21:52:49.930Z,21.31
2023-05-06T21:55:16.629Z,21.31
2023-05-06T21:57:44.609Z,21.28
2023-05-06T22:00:12.530Z,21.27
2023-05-06T22:02:40.197Z,21.24
2023-05-06T22:05:08.153Z,21.24
2023-05-06T22:07:36.891Z,21.22
2023-05-06T22:10:04.531Z,21.22
2023-05-06T22:12:32.079Z,21.21
2023-05-06T22:14:58.497Z,21.21
2023-05-06T22:17:25.260Z,21.20
2023-05-06T22:19:52.667Z,21.20
2023-05-06T22:22:19.481Z,21.21
2023-05-06T22:24:48.365Z,21.20
2023-05-06T22:27:14.869Z,21.20
2023-05-06T22:29:41.261Z,21.19
2023-05-06T22:32:07.753Z,21.18
2023-05-06T22:34:34.292Z,21.17
2023-05-06T22:37:01.330Z,21.16
2023-05-06T22:39:27.719Z,21.17
2023-05-06T22:41:54.123Z,21.16
2023-05-06T22:44:20.992Z,21.17
2023-05-06T22:46:47.395Z,21.15
2023-05-06T22:49:14.404Z,21.14
2023-05-06T22:51:41.221Z,21.13
2023-05-06T22:54:07.782Z,21.12
2023-05-06T22:56:34.426Z,21.12
2023-05-06T22:59:00.817Z,21.11
2023-05-06T23:01:31.889Z,21.12
2023-05-06T23:03:59.754Z,21.10
2023-05-06T23:06:27.663Z,21.09
2023-05-06T23:08:54.065Z,21.10
2023-05-06T23:11:20.683Z,21.09
2023-05-06T23:13:47.285Z,21.05
2023-05-06T23:16:14.668Z,21.04
2023-05-06T23:18:41.310Z,21.02
2023-05-06T23:21:08.540Z,21.00
2023-05-06T23:23:35.140Z,20.99
2023-05-06T23:26:01.471Z,20.97
2023-05-06T23:28:28.752Z,20.96
2023-05-06T23:30:55.314Z,20.96
2023-05-06T23:33:22.329Z,20.95
2023-05-06T23:35:48.969Z,20.94
2023-05-06T23:38:15.747Z,20.95
2023-05-06T23:40:42.141Z,20.93
2023-05-06T23:43:10.784Z,20.92
2023-05-06T23:45:37.628Z,20.92
2023-05-06T23:48:04.600Z,20.92
2023-05-06T23:50:31.173Z,20.91
2023-05-06T23:52:57.741Z,20.92
2023-05-06T23:55:26.288Z,20.92
2023-05-06T23:57:52.652Z,20.94
